Time;durP1;ratioP1;P1;durP2;ratioP2;P2;SDS_P1;SDS_P2;PMS_P1;PMS_P2;Temp;Humidity;BMP_temperature;BMP_pressure;BME280_temperature;BME280_humidity;BME280_pressure;Samples;Min_cycle;Max_cycle;Signal;HPM_P1;HPM_P2
2022/06/22 00:02:15;;;;;;;13.90;6.40;;;;;;;20.25;74.58;98055.50;4945591;28;20221;-49
2022/06/22 00:04:45;;;;;;;11.07;7.00;;;;;;;20.22;74.39;98054.13;4953279;28;20298;-49
2022/06/22 00:07:16;;;;;;;7.37;6.10;;;;;;;20.19;74.33;98051.91;4953054;28;20373;-49
2022/06/22 00:09:46;;;;;;;6.97;5.67;;;;;;;20.19;74.84;98050.06;4953091;28;20585;-49
2022/06/22 00:12:21;;;;;;;7.73;5.83;;;;;;;20.20;74.74;98056.97;4951938;28;20218;-49
2022/06/22 00:14:50;;;;;;;8.77;5.83;;;;;;;20.20;75.08;98056.19;4951224;28;20231;-49
2022/06/22 00:17:19;;;;;;;9.57;5.73;;;;;;;20.22;74.97;98054.13;4935679;29;20220;-49
2022/06/22 00:19:47;;;;;;;6.77;6.07;;;;;;;20.22;74.92;98056.78;4952986;28;20304;-49
2022/06/22 00:22:19;;;;;;;8.83;6.47;;;;;;;20.23;74.52;98063.69;4953283;28;20301;-49
2022/06/22 00:24:56;;;;;;;8.97;6.30;;;;;;;20.16;74.60;98063.75;4953031;28;20224;-49
2022/06/22 00:27:30;;;;;;;9.83;5.90;;;;;;;20.11;74.43;98061.03;4952595;28;20272;-49
2022/06/22 00:30:11;;;;;;;8.17;6.07;;;;;;;20.10;74.68;98058.59;4935431;29;20316;-49
2022/06/22 00:32:38;;;;;;;9.13;5.90;;;;;;;20.05;74.62;98061.94;4953709;28;20212;-49
2022/06/22 00:35:38;;;;;;;6.83;5.93;;;;;;;20.00;75.43;98073.19;4953004;28;20215;-49
2022/06/22 00:38:06;;;;;;;7.00;6.20;;;;;;;19.96;76.24;98074.66;4939914;28;20248;-50
2022/06/22 00:40:36;;;;;;;8.53;6.00;;;;;;;19.94;76.42;98079.38;4952384;28;20219;-49
2022/06/22 00:43:05;;;;;;;9.57;6.23;;;;;;;19.96;76.52;98077.31;4951436;28;20231;-49
2022/06/22 00:45:34;;;;;;;9.17;5.73;;;;;;;20.01;76.55;98069.50;4952123;28;20528;-49
2022/06/22 00:48:05;;;;;;;9.47;5.57;;;;;;;19.98;75.96;98062.00;4947138;28;20370;-49
2022/06/22 00:50:40;;;;;;;8.13;5.60;;;;;;;19.98;75.63;98058.56;4951299;28;20207;-49
2022/06/22 00:53:14;;;;;;;8.90;6.03;;;;;;;19.96;75.96;98057.97;4951969;28;20224;-49
2022/06/22 00:55:50;;;;;;;6.93;5.90;;;;;;;19.97;75.70;98051.66;4955353;29;20217;-49
2022/06/22 00:58:24;;;;;;;7.07;6.20;;;;;;;19.99;75.97;98052.22;4955875;29;20197;-49
2022/06/22 01:00:57;;;;;;;8.20;5.90;;;;;;;19.94;76.20;98054.75;4956800;29;20221;-49
2022/06/22 01:03:32;;;;;;;10.10;6.00;;;;;;;19.94;75.76;98054.75;4955775;29;20197;-49
2022/06/22 01:06:06;;;;;;;8.03;5.73;;;;;;;19.97;75.94;98060.38;4956642;28;20184;-49
2022/06/22 01:08:40;;;;;;;8.70;6.40;;;;;;;19.99;76.16;98052.22;4955467;29;20659;-49
2022/06/22 01:12:16;;;;;;;8.10;6.23;;;;;;;20.00;75.89;98064.44;4939688;29;20200;-49
2022/06/22 01:14:07;;;;;;;8.90;6.27;;;;;;;20.11;76.46;98071.63;4955369;29;20199;-49
2022/06/22 01:16:37;;;;;;;8.97;6.37;;;;;;;20.12;75.74;98075.88;4956656;28;20216;-49
2022/06/22 01:19:18;;;;;;;6.53;5.80;;;;;;;20.16;75.60;98097.41;4956912;29;20560;-49
2022/06/22 01:21:51;;;;;;;8.63;5.93;;;;;;;20.28;74.39;98105.38;4955366;29;20557;-49
2022/06/22 01:24:26;;;;;;;7.87;6.33;;;;;;;20.44;73.16;98115.34;4956767;29;20200;-49
2022/06/22 01:27:22;;;;;;;8.33;5.93;;;;;;;20.59;72.07;98108.78;4951439;28;20221;-49
2022/06/22 01:29:52;;;;;;;15.13;7.67;;;;;;;20.62;75.90;98105.69;4955631;29;20215;-49
2022/06/22 01:32:22;;;;;;;11.13;6.80;;;;;;;20.55;78.83;98100.50;4935798;29;20202;-48
2022/06/22 01:34:50;;;;;;;15.63;7.27;;;;;;;20.46;79.93;98120.44;4937351;28;20204;-49
2022/06/22 01:37:21;;;;;;;9.47;8.03;;;;;;;20.23;80.12;98115.84;4935484;28;20760;-49
2022/06/22 01:39:48;;;;;;;12.53;8.73;;;;;;;19.97;82.63;98104.63;4950104;28;20198;-48
2022/06/22 01:42:23;;;;;;;12.73;8.87;;;;;;;19.70;83.58;98081.09;4955720;28;20484;-47
2022/06/22 01:44:57;;;;;;;11.43;9.33;;;;;;;19.58;86.50;98050.09;4955696;28;20206;-48
2022/06/22 01:47:31;;;;;;;12.60;9.53;;;;;;;19.47;88.72;98019.09;4961194;28;20691;-50
2022/06/22 01:50:05;;;;;;;13.03;8.73;;;;;;;19.32;90.99;97998.31;4941866;28;20261;-48
2022/06/22 01:52:43;;;;;;;13.00;9.10;;;;;;;19.20;94.22;97997.44;4968624;28;20293;-48
2022/06/22 01:55:16;;;;;;;10.90;9.70;;;;;;;19.08;94.83;97990.25;4955919;28;20192;-48
2022/06/22 01:57:48;;;;;;;15.40;9.80;;;;;;;19.02;94.82;97985.84;4933877;28;20220;-48
2022/06/22 02:00:18;;;;;;;14.37;9.60;;;;;;;19.01;95.45;97984.22;4930468;29;20213;-48
2022/06/22 02:02:50;;;;;;;16.20;9.30;;;;;;;18.99;96.24;97991.59;4938166;28;20203;-48
2022/06/22 02:05:25;;;;;;;11.67;9.20;;;;;;;18.88;99.82;97995.75;4930621;29;20207;-48
2022/06/22 02:07:56;;;;;;;14.80;9.63;;;;;;;18.76;100.00;98011.50;4937324;28;20225;-48
2022/06/22 02:10:35;;;;;;;12.50;9.50;;;;;;;18.70;100.00;98023.78;4955552;28;20285;-48
2022/06/22 02:13:20;;;;;;;11.23;9.40;;;;;;;18.61;100.00;98024.28;4937898;28;20211;-48
2022/06/22 02:15:55;;;;;;;12.17;9.43;;;;;;;18.54;100.00;98019.06;4949753;28;20209;-48
2022/06/22 02:18:31;;;;;;;13.40;9.43;;;;;;;18.51;100.00;98025.59;4938271;29;20201;-49
2022/06/22 02:20:59;;;;;;;12.37;9.03;;;;;;;18.47;100.00;98039.44;4937389;29;20213;-48
2022/06/22 02:23:29;;;;;;;12.47;9.80;;;;;;;18.44;100.00;98049.44;4955284;29;20719;-47
2022/06/22 02:26:13;;;;;;;13.00;9.73;;;;;;;18.38;100.00;98054.78;4954458;28;20648;-48
2022/06/22 02:28:43;;;;;;;12.17;9.43;;;;;;;18.41;100.00;98062.28;4937693;29;20193;-48
2022/06/22 02:31:10;;;;;;;14.33;9.63;;;;;;;18.37;100.00;98050.53;4946721;29;20210;-48
2022/06/22 02:33:40;;;;;;;13.97;9.43;;;;;;;18.38;100.00;98047.66;4954279;28;20201;-48
2022/06/22 02:36:08;;;;;;;12.03;9.53;;;;;;;18.39;100.00;98046.63;4954311;28;20206;-48
2022/06/22 02:38:35;;;;;;;10.27;9.17;;;;;;;18.33;100.00;98057.25;4954869;29;20203;-48
2022/06/22 02:46:35;;;;;;;13.77;9.77;;;;;;;18.43;100.00;98076.06;4954430;28;20653;-48
2022/06/22 02:49:07;;;;;;;12.53;9.50;;;;;;;18.44;100.00;98064.50;4937134;29;20243;-48
2022/06/22 02:51:38;;;;;;;15.10;10.43;;;;;;;18.46;100.00;98054.50;4954582;28;20198;-47
2022/06/22 02:54:08;;;;;;;12.23;10.03;;;;;;;18.50;100.00;98060.16;4937629;29;20675;-48
2022/06/22 02:56:40;;;;;;;12.17;9.40;;;;;;;18.50;100.00;98065.44;4953940;28;20225;-48
2022/06/22 02:59:10;;;;;;;11.80;10.53;;;;;;;18.54;100.00;98061.34;4954486;29;20218;-48
2022/06/22 03:01:39;;;;;;;11.53;9.63;;;;;;;18.55;100.00;98062.97;4954458;29;20221;-48
2022/06/22 03:04:10;;;;;;;10.50;9.43;;;;;;;18.55;100.00;98066.41;4954560;29;20204;-49
2022/06/22 03:06:44;;;;;;;14.00;10.10;;;;;;;18.56;100.00;98065.38;4954234;28;20209;-48
2022/06/22 03:09:11;;;;;;;11.00;9.80;;;;;;;18.56;100.00;98070.66;4947037;29;20185;-48
2022/06/22 03:11:43;;;;;;;11.03;9.90;;;;;;;18.45;100.00;98052.91;4954115;29;20194;-48
2022/06/22 03:14:21;;;;;;;10.63;9.63;;;;;;;18.50;100.00;98049.59;4946917;29;20195;-48
2022/06/22 03:16:51;;;;;;;15.10;10.30;;;;;;;18.46;100.00;98046.59;4936368;29;20213;-48
2022/06/22 03:19:26;;;;;;;12.77;9.87;;;;;;;18.38;100.00;98038.94;4954352;29;20762;-48
2022/06/22 03:21:54;;;;;;;12.10;9.57;;;;;;;18.31;100.00;98043.44;4953917;29;20299;-47
2022/06/22 03:24:33;;;;;;;13.27;10.10;;;;;;;18.24;100.00;98030.28;4954140;29;20598;-48
2022/06/22 03:27:03;;;;;;;11.10;10.00;;;;;;;18.22;100.00;98035.78;4953208;28;20210;-48
2022/06/22 03:29:34;;;;;;;12.03;10.83;;;;;;;18.25;100.00;98045.09;4937050;29;20201;-48
2022/06/22 03:32:08;;;;;;;13.73;9.73;;;;;;;18.29;100.00;98051.56;4953969;29;20562;-48
2022/06/22 03:34:40;;;;;;;10.47;9.47;;;;;;;18.32;100.00;98056.44;4950702;29;20203;-48
2022/06/22 03:37:32;;;;;;;9.97;9.00;;;;;;;18.38;100.00;98062.72;4948246;28;20221;-47
2022/06/22 03:40:04;;;;;;;11.33;8.77;;;;;;;18.41;100.00;98068.34;4953933;29;20773;-48
2022/06/22 03:42:36;;;;;;;11.13;8.80;;;;;;;18.41;100.00;98070.19;4953836;29;20217;-47
2022/06/22 03:45:10;;;;;;;10.97;9.63;;;;;;;18.43;100.00;98073.44;4953831;29;20221;-48
2022/06/22 03:47:45;;;;;;;11.00;9.83;;;;;;;18.45;100.00;98076.69;4935966;29;20231;-48
2022/06/22 03:50:38;;;;;;;13.77;9.73;;;;;;;18.55;100.00;98086.75;4949058;29;20213;-48
2022/06/22 03:53:12;;;;;;;15.63;9.30;;;;;;;18.54;100.00;98090.41;4951776;29;20268;-48
2022/06/22 03:55:43;;;;;;;11.10;9.43;;;;;;;18.56;100.00;98091.00;4953609;29;20832;-47
2022/06/22 03:58:12;;;;;;;11.60;9.17;;;;;;;18.56;100.00;98091.00;4928916;29;20293;-48
2022/06/22 04:00:44;;;;;;;10.77;9.77;;;;;;;18.57;100.00;98093.41;4953811;29;20642;-47
2022/06/22 04:03:12;;;;;;;12.60;10.37;;;;;;;18.57;100.00;98082.06;4937526;28;20286;-47
2022/06/22 04:05:43;;;;;;;13.10;10.40;;;;;;;18.56;100.00;98083.09;4950194;29;20200;-48
2022/06/22 04:08:16;;;;;;;14.37;9.07;;;;;;;18.61;100.00;98085.06;4951144;28;20217;-49
2022/06/22 04:10:47;;;;;;;13.23;9.20;;;;;;;18.60;100.00;98081.63;4953232;29;20194;-50
2022/06/22 04:13:19;;;;;;;11.83;8.80;;;;;;;18.61;100.00;98074.50;4953748;29;20286;-50
2022/06/22 04:15:54;;;;;;;11.93;10.20;;;;;;;18.65;100.00;98079.16;4953388;28;20206;-50
2022/06/22 04:18:28;;;;;;;14.67;9.80;;;;;;;18.72;100.00;98082.53;4953350;28;20197;-49
2022/06/22 04:21:01;;;;;;;10.90;9.90;;;;;;;18.76;100.00;98079.47;4953575;29;20202;-48
2022/06/22 04:23:33;;;;;;;13.40;9.63;;;;;;;18.77;100.00;98076.59;4953344;29;20228;-50
2022/06/22 04:26:06;;;;;;;12.47;10.23;;;;;;;18.78;100.00;98090.63;4953094;28;20198;-48
2022/06/22 04:28:38;;;;;;;12.03;8.90;;;;;;;18.77;100.00;98092.44;4955292;28;20202;-48
2022/06/22 04:31:10;;;;;;;12.93;9.10;;;;;;;18.87;100.00;98105.97;4957316;29;20202;-48
2022/06/22 04:33:45;;;;;;;12.70;10.23;;;;;;;18.86;100.00;98109.66;4956121;28;20292;-47
2022/06/22 04:36:18;;;;;;;11.70;9.37;;;;;;;18.86;100.00;98127.38;4952150;28;20230;-50
2022/06/22 04:38:50;;;;;;;12.30;9.90;;;;;;;18.87;100.00;98129.00;4939669;29;20197;-49
2022/06/22 04:41:27;;;;;;;11.83;10.63;;;;;;;18.86;100.00;98136.09;4956921;29;20211;-48
2022/06/22 04:43:56;;;;;;;11.97;10.67;;;;;;;18.80;100.00;98152.81;4957168;29;20253;-47
2022/06/22 04:46:29;;;;;;;15.10;9.63;;;;;;;18.72;98.07;98153.09;4956686;28;20698;-48
2022/06/22 04:48:58;;;;;;;10.60;9.60;;;;;;;18.66;98.00;98153.94;4956559;29;20210;-47
2022/06/22 04:51:32;;;;;;;13.37;9.80;;;;;;;18.61;98.08;98170.47;4939529;29;20203;-48
2022/06/22 04:54:06;;;;;;;12.17;9.03;;;;;;;18.62;98.89;98184.47;4956152;29;20205;-47
2022/06/22 04:56:37;;;;;;;17.20;10.20;;;;;;;18.68;97.55;98186.25;4956259;28;20206;-48
2022/06/22 04:59:05;;;;;;;16.60;10.50;;;;;;;18.75;98.70;98179.09;4956814;29;20228;-48
2022/06/22 05:01:38;;;;;;;13.50;9.77;;;;;;;18.81;99.85;98174.81;4956491;29;20214;-48
2022/06/22 05:04:08;;;;;;;16.27;10.30;;;;;;;18.86;99.99;98164.38;4956426;29;20701;-48
2022/06/22 05:06:41;;;;;;;13.07;10.03;;;;;;;18.91;99.94;98156.63;4938922;29;20718;-48
2022/06/22 05:09:16;;;;;;;15.10;10.57;;;;;;;18.97;100.00;98158.44;4948644;29;20213;-48
2022/06/22 05:11:46;;;;;;;12.77;10.00;;;;;;;19.09;100.00;98144.47;4956787;29;20182;-48
2022/06/22 05:14:18;;;;;;;13.07;9.43;;;;;;;19.14;100.00;98136.69;4956523;28;20224;-48
2022/06/22 05:16:51;;;;;;;13.50;10.20;;;;;;;19.24;100.00;98130.91;4955809;28;20298;-48
2022/06/22 05:19:19;;;;;;;12.20;10.33;;;;;;;19.27;100.00;98130.47;4956481;29;20202;-48
2022/06/22 05:22:12;;;;;;;13.33;11.10;;;;;;;19.32;100.00;98128.78;4956577;28;20216;-48
2022/06/22 05:24:43;;;;;;;13.70;10.43;;;;;;;19.33;100.00;98135.69;4956466;29;20547;-49
2022/06/22 05:27:14;;;;;;;14.53;10.50;;;;;;;19.37;100.00;98141.34;4948089;28;20221;-48
2022/06/22 05:29:46;;;;;;;13.70;10.30;;;;;;;19.38;100.00;98163.31;4939261;29;20211;-48
2022/06/22 05:32:21;;;;;;;11.27;9.97;;;;;;;19.40;98.96;98170.03;4949141;29;20209;-48
2022/06/22 05:34:51;;;;;;;13.87;9.97;;;;;;;19.43;98.09;98169.59;4955517;29;20220;-48
2022/06/22 05:37:23;;;;;;;16.50;12.07;;;;;;;19.50;98.30;98185.38;4955404;28;20210;-48
2022/06/22 05:39:50;;;;;;;13.77;10.70;;;;;;;19.50;98.51;98182.75;4954665;28;20199;-48
2022/06/22 05:42:18;;;;;;;15.13;11.73;;;;;;;19.55;98.00;98177.59;4956124;29;20222;-48
2022/06/22 05:44:45;;;;;;;19.27;12.73;;;;;;;19.63;99.55;98176.47;4955908;28;20578;-48
2022/06/22 05:47:19;;;;;;;23.03;13.80;;;;;;;19.60;100.00;98156.56;4955331;28;20225;-48
2022/06/22 05:49:54;;;;;;;22.30;13.17;;;;;;;19.55;100.00;98160.91;4937924;29;20214;-48
2022/06/22 05:52:31;;;;;;;22.40;12.67;;;;;;;19.43;100.00;98159.00;4953499;28;20197;-48
2022/06/22 05:55:04;;;;;;;17.03;12.17;;;;;;;19.41;100.00;98144.34;4955528;29;20198;-48
2022/06/22 05:57:55;;;;;;;24.43;13.53;;;;;;;19.39;100.00;98143.78;4955411;28;20282;-48
2022/06/22 06:00:45;;;;;;;18.37;11.77;;;;;;;19.43;100.00;98147.59;4955832;29;20649;-48
2022/06/22 06:03:24;;;;;;;14.47;11.87;;;;;;;19.42;100.00;98154.75;4947620;29;20295;-48
2022/06/22 06:05:55;;;;;;;19.07;12.80;;;;;;;19.42;100.00;98160.03;4955132;28;20207;-48
2022/06/22 06:08:26;;;;;;;18.43;12.27;;;;;;;19.36;100.00;98149.50;4955468;29;20190;-48
2022/06/22 06:10:54;;;;;;;16.47;12.27;;;;;;;19.35;100.00;98150.53;4955105;28;20205;-48
2022/06/22 06:13:27;;;;;;;15.00;11.80;;;;;;;19.37;100.00;98145.81;4955471;29;20203;-50
2022/06/22 06:15:58;;;;;;;17.97;12.30;;;;;;;19.42;100.00;98138.84;4954709;28;20205;-50
2022/06/22 06:18:30;;;;;;;13.77;11.70;;;;;;;19.50;100.00;98147.53;4955258;28;20196;-51
2022/06/22 06:21:02;;;;;;;13.90;10.73;;;;;;;19.57;100.00;98145.63;4955382;29;20198;-51
2022/06/22 06:23:38;;;;;;;14.13;10.93;;;;;;;19.66;100.00;98141.63;4955010;28;20209;-48
2022/06/22 06:29:02;;;;;;;13.33;11.53;;;;;;;19.85;100.00;98134.47;4954591;29;20212;-48
2022/06/22 06:31:36;;;;;;;14.10;11.00;;;;;;;20.05;100.00;98131.59;4950266;28;20565;-48
2022/06/22 06:34:14;;;;;;;14.13;11.47;;;;;;;20.25;100.00;98125.22;4951133;28;20210;-49
2022/06/22 06:36:48;;;;;;;13.80;11.23;;;;;;;20.53;100.00;98123.78;4953285;28;20568;-48
2022/06/22 06:39:23;;;;;;;14.80;10.83;;;;;;;20.79;100.00;98122.56;4946390;29;20207;-48
2022/06/22 06:42:04;;;;;;;12.20;10.83;;;;;;;21.04;100.00;98110.09;4954827;28;20958;-48
2022/06/22 06:44:32;;;;;;;13.43;10.87;;;;;;;21.18;100.00;98122.09;4954910;29;20198;-48
2022/06/22 06:47:05;;;;;;;14.97;11.03;;;;;;;21.24;99.90;98121.16;4954490;28;20634;-48
2022/06/22 06:49:39;;;;;;;14.63;10.60;;;;;;;21.31;98.19;98126.34;4959771;28;20199;-48
2022/06/22 06:52:15;;;;;;;16.10;10.87;;;;;;;21.23;98.12;98119.56;4951801;28;20609;-48
2022/06/22 06:54:47;;;;;;;15.13;11.63;;;;;;;21.35;99.09;98127.47;4952059;29;20234;-48
2022/06/22 06:57:17;;;;;;;13.67;11.00;;;;;;;21.31;100.00;98121.03;4943758;28;20221;-48
2022/06/22 06:59:50;;;;;;;15.53;10.97;;;;;;;21.33;99.51;98118.94;4951623;28;20213;-48
2022/06/22 07:02:19;;;;;;;15.40;10.40;;;;;;;21.45;100.00;98126.09;4954724;29;20208;-48
2022/06/22 07:04:48;;;;;;;13.67;10.53;;;;;;;21.62;100.00;98121.69;4937233;29;20312;-48
2022/06/22 07:07:31;;;;;;;14.30;11.03;;;;;;;21.63;98.41;98118.00;4954511;28;20307;-48
2022/06/22 07:10:03;;;;;;;12.63;10.30;;;;;;;22.03;94.03;98126.97;4954730;29;20215;-48
2022/06/22 07:12:35;;;;;;;14.90;10.27;;;;;;;21.94;91.51;98126.56;4954713;29;20533;-48
2022/06/22 07:15:05;;;;;;;10.77;9.73;;;;;;;22.20;92.31;98132.34;4954616;29;20624;-48
2022/06/22 07:17:54;;;;;;;12.50;9.33;;;;;;;22.77;89.04;98157.22;4954407;28;20232;-48
2022/06/22 07:20:27;;;;;;;15.87;10.07;;;;;;;23.40;90.21;98175.72;4954547;29;20657;-48
2022/06/22 07:23:01;;;;;;;15.67;11.27;;;;;;;23.47;84.14;98180.88;4951807;29;20211;-48
2022/06/22 07:25:33;;;;;;;14.97;11.70;;;;;;;23.18;83.61;98188.19;4954466;28;20201;-48
2022/06/22 07:28:06;;;;;;;15.53;10.97;;;;;;;23.39;83.47;98190.09;4951028;28;20227;-50
2022/06/22 07:30:36;;;;;;;15.63;11.37;;;;;;;23.11;78.51;98188.31;4951666;28;20193;-48
2022/06/22 07:33:11;;;;;;;15.27;12.10;;;;;;;22.65;83.15;98185.75;4946878;29;20195;-48
2022/06/22 07:35:45;;;;;;;15.07;10.73;;;;;;;22.70;82.00;98191.16;4928932;29;20196;-48
2022/06/22 07:38:24;;;;;;;14.43;11.53;;;;;;;22.78;78.00;98193.44;4945039;29;20304;-48
2022/06/22 07:43:36;;;;;;;16.73;11.43;;;;;;;22.91;83.59;98191.50;4946382;29;20574;-48
2022/06/22 07:46:05;;;;;;;12.87;10.83;;;;;;;22.94;75.82;98202.44;4946440;28;20599;-48
2022/06/22 07:48:38;;;;;;;11.93;9.50;;;;;;;22.93;78.35;98202.69;4947848;28;20217;-48
2022/06/22 07:51:09;;;;;;;14.10;10.67;;;;;;;22.97;75.61;98201.16;4940813;28;20205;-49
2022/06/22 07:53:44;;;;;;;14.27;11.33;;;;;;;22.83;77.18;98188.19;4942183;28;20184;-50
2022/06/22 07:56:15;;;;;;;16.87;11.13;;;;;;;22.81;78.67;98184.97;4940472;28;20273;-48
2022/06/22 07:58:48;;;;;;;14.07;10.23;;;;;;;23.22;77.17;98194.63;4941597;28;20201;-48
2022/06/22 08:01:19;;;;;;;14.07;10.50;;;;;;;23.44;75.01;98200.00;4926136;29;20558;-48
2022/06/22 08:03:50;;;;;;;14.17;11.53;;;;;;;23.12;74.82;98209.41;4942967;28;20261;-48
2022/06/22 08:06:22;;;;;;;16.30;11.87;;;;;;;22.73;75.93;98201.31;4944957;28;20218;-48
2022/06/22 08:08:55;;;;;;;18.23;10.80;;;;;;;22.95;78.76;98201.41;4946622;28;20199;-49
2022/06/22 08:11:28;;;;;;;16.40;11.07;;;;;;;23.00;79.11;98198.81;4928842;29;20719;-50
2022/06/22 08:14:01;;;;;;;14.60;10.10;;;;;;;23.15;76.57;98206.25;4943898;28;20245;-48
2022/06/22 08:16:33;;;;;;;12.60;10.53;;;;;;;22.96;78.94;98200.34;4922489;28;20281;-49
2022/06/22 08:19:01;;;;;;;16.33;10.50;;;;;;;22.89;80.79;98202.38;4940036;28;20815;-48
2022/06/22 08:21:31;;;;;;;14.80;11.17;;;;;;;22.81;81.09;98206.25;4963823;28;20186;-48
2022/06/22 08:23:59;;;;;;;15.33;11.20;;;;;;;23.02;82.10;98197.78;4959047;28;20300;-48
2022/06/22 08:26:30;;;;;;;13.13;10.73;;;;;;;23.23;83.93;98196.28;4957119;28;20214;-48
2022/06/22 08:28:57;;;;;;;13.40;11.37;;;;;;;23.36;84.10;98197.78;4956222;28;20257;-48
2022/06/22 08:31:29;;;;;;;18.73;11.63;;;;;;;23.38;79.79;98207.13;4957058;29;20678;-48
2022/06/22 08:34:00;;;;;;;17.40;11.73;;;;;;;23.18;78.49;98215.59;4957171;29;20199;-48
2022/06/22 08:36:34;;;;;;;17.40;12.50;;;;;;;23.12;79.82;98216.56;4953325;28;20224;-48
2022/06/22 08:39:06;;;;;;;16.00;11.10;;;;;;;23.00;78.95;98206.00;4949855;28;20212;-47
2022/06/22 08:41:44;;;;;;;14.23;11.53;;;;;;;22.90;80.80;98197.88;4954360;28;20202;-47
2022/06/22 08:44:21;;;;;;;14.00;11.27;;;;;;;22.98;78.86;98198.25;4952264;28;20228;-48
2022/06/22 08:47:32;;;;;;;17.97;12.30;;;;;;;23.00;79.70;98204.16;4953814;28;20268;-48
2022/06/22 08:50:17;;;;;;;13.97;11.10;;;;;;;23.02;78.34;98203.09;4956018;29;20217;-48
2022/06/22 08:53:00;;;;;;;17.63;12.17;;;;;;;22.98;77.75;98213.44;4953638;29;20205;-47
2022/06/22 08:55:46;;;;;;;16.33;11.87;;;;;;;22.94;78.17;98210.44;4938912;29;20207;-47
2022/06/22 08:58:30;;;;;;;16.33;13.37;;;;;;;22.89;75.76;98209.56;4948606;29;20385;-47
2022/06/22 09:01:04;;;;;;;14.57;12.93;;;;;;;22.96;78.71;98205.69;4955826;29;20436;-48
2022/06/22 09:03:54;;;;;;;17.93;12.83;;;;;;;22.81;80.05;98210.75;4955994;29;20215;-48
2022/06/22 09:06:49;;;;;;;13.47;12.07;;;;;;;22.93;76.93;98218.66;4949074;28;20222;-48
2022/06/22 09:09:56;;;;;;;18.30;13.77;;;;;;;22.70;81.10;98220.41;4948475;29;20201;-48
2022/06/22 09:12:36;;;;;;;14.67;11.93;;;;;;;22.71;79.79;98227.34;4932341;29;20196;-48
2022/06/22 09:15:40;;;;;;;15.60;12.80;;;;;;;22.68;81.45;98222.50;4938164;29;20250;-48
2022/06/22 09:18:40;;;;;;;16.23;12.97;;;;;;;22.71;79.26;98227.34;4955104;28;20214;-48
2022/06/22 09:21:40;;;;;;;15.47;12.47;;;;;;;22.54;77.98;98230.78;4949746;29;20198;-48
2022/06/22 09:24:16;;;;;;;19.60;11.33;;;;;;;22.61;79.93;98237.81;4955478;29;20724;-48
2022/06/22 09:26:59;;;;;;;16.20;13.07;;;;;;;22.56;76.09;98239.34;4955211;28;20220;-48
2022/06/22 09:29:49;;;;;;;16.80;12.07;;;;;;;22.44;77.74;98243.09;4949578;29;20653;-48
2022/06/22 09:32:43;;;;;;;15.23;12.40;;;;;;;22.49;80.20;98236.03;4948488;29;20253;-48
2022/06/22 09:36:01;;;;;;;15.53;12.63;;;;;;;22.59;77.60;98227.44;4955155;29;20476;-48
2022/06/22 09:38:49;;;;;;;16.37;12.50;;;;;;;22.49;79.76;98240.56;4924534;29;20212;-48
2022/06/22 09:41:28;;;;;;;18.23;13.10;;;;;;;22.37;81.64;98236.06;4952636;29;20205;-48
2022/06/22 09:44:27;;;;;;;17.87;14.63;;;;;;;22.20;81.56;98238.66;4954964;29;20228;-48
2022/06/22 09:47:22;;;;;;;16.93;14.97;;;;;;;22.17;82.30;98235.66;4954595;28;20217;-48
2022/06/22 09:50:24;;;;;;;20.77;14.97;;;;;;;22.25;79.61;98233.44;4955033;29;20584;-48
2022/06/22 09:53:08;;;;;;;18.97;13.30;;;;;;;22.72;79.39;98244.16;4952466;29;20198;-48
2022/06/22 09:59:26;;;;;;;18.30;14.10;;;;;;;22.97;78.21;98238.44;4950060;29;20200;-47
2022/06/22 10:02:06;;;;;;;18.00;14.43;;;;;;;23.19;75.85;98243.03;4952651;29;20197;-48
2022/06/22 10:04:59;;;;;;;17.73;14.80;;;;;;;23.37;74.68;98249.97;4954850;29;20223;-48
2022/06/22 10:07:44;;;;;;;18.77;14.03;;;;;;;23.12;76.30;98252.00;4948597;28;20575;-48
2022/06/22 10:10:27;;;;;;;16.63;13.30;;;;;;;23.12;75.60;98251.16;4946571;29;20684;-48
2022/06/22 10:13:16;;;;;;;19.63;14.80;;;;;;;23.00;76.84;98254.72;4954360;29;20236;-48
2022/06/22 10:16:01;;;;;;;24.40;16.10;;;;;;;22.75;77.37;98259.63;4954481;29;20583;-48
2022/06/22 10:18:42;;;;;;;17.20;13.67;;;;;;;22.86;77.91;98258.72;4932106;29;20208;-49
2022/06/22 10:21:20;;;;;;;16.70;14.80;;;;;;;22.91;78.86;98268.66;4954297;29;20196;-48
2022/06/22 10:24:14;;;;;;;20.97;15.97;;;;;;;22.61;80.51;98277.72;4953993;29;20719;-48
2022/06/22 10:26:53;;;;;;;18.67;15.03;;;;;;;22.63;82.44;98283.59;4929099;29;20699;-48
2022/06/22 10:29:38;;;;;;;18.03;14.53;;;;;;;22.74;84.49;98281.97;4947527;29;20188;-48
2022/06/22 10:32:33;;;;;;;21.53;16.70;;;;;;;22.95;84.10;98283.09;4954166;29;20282;-48
2022/06/22 10:35:06;;;;;;;21.40;14.90;;;;;;;23.04;82.46;98278.19;4936763;29;20204;-48
2022/06/22 10:37:52;;;;;;;18.93;14.27;;;;;;;22.99;83.05;98289.56;4953741;28;20229;-48
2022/06/22 10:46:38;;;;;;;16.53;11.67;;;;;;;23.35;80.92;98282.16;4926994;28;20234;-48
2022/06/22 10:49:31;;;;;;;18.47;10.87;;;;;;;23.21;82.22;98272.88;4953856;29;20201;-48
2022/06/22 10:52:27;;;;;;;16.80;10.60;;;;;;;23.46;81.04;98283.16;4954111;29;20233;-48
2022/06/22 10:55:15;;;;;;;15.70;10.37;;;;;;;23.64;81.08;98284.72;4944474;28;20239;-48
2022/06/22 10:58:13;;;;;;;25.47;10.83;;;;;;;23.89;81.59;98288.81;4953725;28;20221;-48
2022/06/22 11:00:53;;;;;;;13.53;6.07;;;;;;;23.91;71.93;98281.38;4949790;29;20206;-49
2022/06/22 11:03:59;;;;;;;19.13;5.80;;;;;;;23.40;74.01;98289.44;4947424;29;20290;-48
2022/06/22 11:06:56;;;;;;;14.03;5.87;;;;;;;23.48;70.53;98278.38;4947625;28;20215;-48
2022/06/22 11:09:55;;;;;;;9.07;3.27;;;;;;;23.57;75.10;98276.91;4947815;29;20635;-49
2022/06/22 11:12:45;;;;;;;16.40;3.03;;;;;;;23.64;72.42;98274.06;4947114;29;20279;-48
2022/06/22 11:15:52;;;;;;;11.87;3.30;;;;;;;23.64;72.72;98273.28;4945652;29;20288;-48
2022/06/22 11:18:52;;;;;;;18.90;3.50;;;;;;;23.77;69.43;98278.25;4942622;29;20273;-49
2022/06/22 11:21:42;;;;;;;15.43;3.50;;;;;;;24.09;69.36;98271.50;4946918;28;20281;-48
2022/06/22 11:24:39;;;;;;;13.00;3.67;;;;;;;24.24;68.59;98276.19;4953697;29;20242;-48
2022/06/22 11:33:17;;;;;;;11.67;2.77;;;;;;;25.20;65.55;98279.25;4954464;28;20205;-48
2022/06/22 11:35:55;;;;;;;14.17;2.80;;;;;;;24.85;67.35;98267.25;4954056;28;20278;-48
2022/06/22 11:38:46;;;;;;;15.77;2.23;;;;;;;25.12;66.43;98258.38;4946117;29;20214;-48
2022/06/22 11:41:52;;;;;;;15.13;2.40;;;;;;;24.65;65.42;98255.28;4947437;29;20576;-48
2022/06/22 11:48:02;;;;;;;9.43;2.43;;;;;;;24.29;68.44;98260.25;4916810;29;20226;-48
2022/06/22 11:50:35;;;;;;;11.23;3.03;;;;;;;23.94;67.87;98267.53;4935782;29;20187;-48
2022/06/22 11:53:14;;;;;;;12.00;2.33;;;;;;;24.03;67.07;98254.59;4951341;29;20275;-48
2022/06/22 11:55:48;;;;;;;14.03;2.60;;;;;;;24.32;68.29;98255.22;4953730;29;20751;-48
2022/06/22 11:59:00;;;;;;;8.80;2.00;;;;;;;24.58;71.36;98246.69;4946167;29;20201;-49
2022/06/22 12:01:59;;;;;;;15.30;2.00;;;;;;;24.85;69.71;98238.66;4950989;29;20203;-48
2022/06/22 12:05:03;;;;;;;11.73;2.43;;;;;;;24.77;69.68;98231.13;4953331;29;20206;-48
2022/06/22 12:08:03;;;;;;;13.70;2.20;;;;;;;24.95;69.17;98229.13;4935530;28;20704;-48
2022/06/22 12:10:50;;;;;;;16.37;2.93;;;;;;;25.28;67.66;98227.25;4953760;29;20585;-48
2022/06/22 12:16:47;;;;;;;16.17;2.87;;;;;;;25.90;61.86;98222.25;4938106;28;20232;-48
2022/06/22 12:19:30;;;;;;;12.10;2.37;;;;;;;26.44;65.13;98239.81;4945804;29;20214;-48
2022/06/22 12:22:16;;;;;;;14.50;2.67;;;;;;;26.38;58.69;98235.50;4953277;29;20205;-48
2022/06/22 12:25:12;;;;;;;11.33;2.93;;;;;;;26.26;63.91;98234.94;4953205;29;20224;-48
2022/06/22 12:27:43;;;;;;;10.67;2.27;;;;;;;25.99;63.70;98231.38;4948388;28;20276;-48
2022/06/22 12:30:29;;;;;;;14.80;2.53;;;;;;;25.69;65.15;98237.41;4936063;29;20257;-48
2022/06/22 12:33:02;;;;;;;8.67;2.63;;;;;;;25.91;67.18;98230.00;4953340;29;20255;-48
2022/06/22 12:35:37;;;;;;;14.77;2.87;;;;;;;25.68;61.97;98231.22;4935775;29;20205;-48
2022/06/22 12:38:16;;;;;;;14.30;2.67;;;;;;;25.57;63.66;98221.53;4952603;28;20255;-48
2022/06/22 12:40:57;;;;;;;17.63;3.27;;;;;;;25.43;62.40;98219.34;4952325;29;20191;-48